Irene V — J8PS4 — position and weather

sailwx.info

Track history (hours):
 
Tides and Currents Weather Stations Pressure Air Temp Water Temp Dewpoint Dewpoint Depression Visibility Wind Speed Wind Dir Waves Ship Positions

Irene V

Last reported at 2015-Apr-05 11:31 UTC. Time now 2015-May-04 15:04 UTC.
Position N 17°48' W 063°05'.
Warning: this ship's position is 29 days out of date.

Length 72 m; draft 5.8 m.

Type: Cargo ship. MMSI: 377924000.

Date/timePositionNaut miles runAvg speedWind from/ knotsBaromVisibWave heightAir tempDewpointWater temp
2015-Apr-05 11:31N 17°48' W 063°05'8 7.5
2015-Apr-05 10:30N 17°55' W 063°05'5 4.1
2015-Apr-05 09:15N 18°00' W 063°03'0 0.0
2015-Apr-05 08:25N 18°00' W 063°03'0 0.0
2015-Apr-05 07:20N 18°00' W 063°03'0 0.0
2015-Apr-05 06:31N 18°00' W 063°03'0 0.0
2015-Apr-05 05:27N 18°00' W 063°03'0 0.0
2015-Apr-05 04:27N 18°00' W 063°03'0 0.0
2015-Apr-05 03:30N 18°00' W 063°03'0 0.0
2015-Apr-05 02:19N 18°00' W 063°03'0 0.0
2015-Apr-05 01:24N 18°00' W 063°03'0 0.0
2015-Apr-05 00:31N 18°00' W 063°03'0 0.0
2015-Apr-04 23:26N 18°00' W 063°03'0 0.0
2015-Apr-04 22:28N 18°00' W 063°03'0 0.0
2015-Apr-04 21:27N 18°00' W 063°03'0 0.0
2015-Apr-04 20:31N 18°00' W 063°03'0 0.0
2015-Apr-04 19:32N 18°00' W 063°03'0 0.0
2015-Apr-04 18:32N 18°00' W 063°03'0 0.0
2015-Apr-04 17:30N 18°00' W 063°03'0 0.0
2015-Apr-04 16:25N 18°00' W 063°03'0 0.0
2015-Apr-04 15:33N 18°00' W 063°03'0 0.0
2015-Apr-04 14:33N 18°00' W 063°03'0 0.0
2015-Apr-04 13:33N 18°00' W 063°03'0 0.0
2015-Apr-04 12:33N 18°00' W 063°03'0 0.0
2015-Apr-04 11:32N 18°00' W 063°03'0 0.0
2015-Apr-04 10:30N 18°00' W 063°03'0 0.4
2015-Apr-04 09:10N 18°00' W 063°03'2 2.2
2015-Apr-04 08:19N 18°00' W 063°05'1 0.8
2015-Apr-04 07:28N 18°00' W 063°05'4 3.8
2015-Apr-04 06:32N 18°00' W 063°08'4 4.3
2015-Apr-04 05:33N 17°57' W 063°11'6 5.4
2015-Apr-04 04:30N 17°52' W 063°11'6 6.6
2015-Apr-04 03:33N 17°46' W 063°09'  
Track history (hours):
 
Tides and Currents Weather Stations Pressure Air Temp Water Temp Dewpoint Dewpoint Depression Visibility Wind Speed Wind Dir Waves Ship Positions

Irene V

Last reported at 2015-Apr-05 11:31 UTC. Time now 2015-May-04 15:04 UTC.
Position N 17°48' W 063°05'.
Warning: this ship's position is 29 days out of date.

Length 72 m; draft 5.8 m.

Type: Cargo ship. MMSI: 377924000.

Date/timePositionNaut miles runAvg speedWind from/ knotsBaromVisibWave heightAir tempDewpointWater temp
2015-Apr-05 11:31N 17°48' W 063°05'8 7.5
2015-Apr-05 10:30N 17°55' W 063°05'5 4.1
2015-Apr-05 09:15N 18°00' W 063°03'0 0.0
2015-Apr-05 08:25N 18°00' W 063°03'0 0.0
2015-Apr-05 07:20N 18°00' W 063°03'0 0.0
2015-Apr-05 06:31N 18°00' W 063°03'0 0.0
2015-Apr-05 05:27N 18°00' W 063°03'0 0.0
2015-Apr-05 04:27N 18°00' W 063°03'0 0.0
2015-Apr-05 03:30N 18°00' W 063°03'0 0.0
2015-Apr-05 02:19N 18°00' W 063°03'0 0.0
2015-Apr-05 01:24N 18°00' W 063°03'0 0.0
2015-Apr-05 00:31N 18°00' W 063°03'0 0.0
2015-Apr-04 23:26N 18°00' W 063°03'0 0.0
2015-Apr-04 22:28N 18°00' W 063°03'0 0.0
2015-Apr-04 21:27N 18°00' W 063°03'0 0.0
2015-Apr-04 20:31N 18°00' W 063°03'0 0.0
2015-Apr-04 19:32N 18°00' W 063°03'0 0.0
2015-Apr-04 18:32N 18°00' W 063°03'0 0.0
2015-Apr-04 17:30N 18°00' W 063°03'0 0.0
2015-Apr-04 16:25N 18°00' W 063°03'0 0.0
2015-Apr-04 15:33N 18°00' W 063°03'0 0.0
2015-Apr-04 14:33N 18°00' W 063°03'0 0.0
2015-Apr-04 13:33N 18°00' W 063°03'0 0.0
2015-Apr-04 12:33N 18°00' W 063°03'0 0.0
2015-Apr-04 11:32N 18°00' W 063°03'0 0.0
2015-Apr-04 10:30N 18°00' W 063°03'0 0.4
2015-Apr-04 09:10N 18°00' W 063°03'2 2.2
2015-Apr-04 08:19N 18°00' W 063°05'1 0.8
2015-Apr-04 07:28N 18°00' W 063°05'4 3.8
2015-Apr-04 06:32N 18°00' W 063°08'4 4.3
2015-Apr-04 05:33N 17°57' W 063°11'6 5.4
2015-Apr-04 04:30N 17°52' W 063°11'6 6.6
2015-Apr-04 03:33N 17°46' W 063°09'  

Dump ship's entire track history